sensor_id;sensor_type;location;lat;lon;timestamp;P1;durP1;ratioP1;P2;durP2;ratioP2
10056;SDS011;5068;51.286;7.518;2023-04-06T00:00:22;6.95;;;3.50;;
10056;SDS011;5068;51.286;7.518;2023-04-06T00:01:54;6.40;;;3.38;;
10056;SDS011;5068;51.286;7.518;2023-04-06T00:03:28;6.85;;;3.63;;
10056;SDS011;5068;51.286;7.518;2023-04-06T00:05:01;6.13;;;3.55;;
10056;SDS011;5068;51.286;7.518;2023-04-06T00:06:37;7.85;;;4.10;;
10056;SDS011;5068;51.286;7.518;2023-04-06T00:08:10;9.05;;;3.72;;
10056;SDS011;5068;51.286;7.518;2023-04-06T00:09:43;7.53;;;3.88;;
10056;SDS011;5068;51.286;7.518;2023-04-06T00:11:16;7.15;;;3.83;;
10056;SDS011;5068;51.286;7.518;2023-04-06T00:12:49;9.82;;;3.80;;
10056;SDS011;5068;51.286;7.518;2023-04-06T00:14:21;7.35;;;4.10;;
10056;SDS011;5068;51.286;7.518;2023-04-06T00:15:54;6.57;;;3.40;;
10056;SDS011;5068;51.286;7.518;2023-04-06T00:17:28;6.35;;;3.75;;
10056;SDS011;5068;51.286;7.518;2023-04-06T00:19:01;7.53;;;4.28;;
10056;SDS011;5068;51.286;7.518;2023-04-06T00:20:35;8.80;;;3.95;;
10056;SDS011;5068;51.286;7.518;2023-04-06T00:22:09;7.93;;;3.80;;
10056;SDS011;5068;51.286;7.518;2023-04-06T00:23:42;7.60;;;4.35;;
10056;SDS011;5068;51.286;7.518;2023-04-06T00:25:15;8.65;;;3.97;;
10056;SDS011;5068;51.286;7.518;2023-04-06T00:26:47;7.95;;;3.88;;
10056;SDS011;5068;51.286;7.518;2023-04-06T00:28:21;6.95;;;3.88;;
10056;SDS011;5068;51.286;7.518;2023-04-06T00:29:57;7.32;;;4.35;;
10056;SDS011;5068;51.286;7.518;2023-04-06T00:31:30;8.93;;;4.07;;
10056;SDS011;5068;51.286;7.518;2023-04-06T00:33:02;6.38;;;3.58;;
10056;SDS011;5068;51.286;7.518;2023-04-06T00:34:36;8.27;;;4.50;;
10056;SDS011;5068;51.286;7.518;2023-04-06T00:36:09;8.35;;;3.97;;
10056;SDS011;5068;51.286;7.518;2023-04-06T00:37:45;6.25;;;3.70;;
10056;SDS011;5068;51.286;7.518;2023-04-06T00:39:19;7.43;;;3.72;;
10056;SDS011;5068;51.286;7.518;2023-04-06T00:40:51;9.07;;;4.25;;
10056;SDS011;5068;51.286;7.518;2023-04-06T00:42:25;5.75;;;3.63;;
10056;SDS011;5068;51.286;7.518;2023-04-06T00:43:57;7.68;;;3.85;;
10056;SDS011;5068;51.286;7.518;2023-04-06T00:45:30;7.57;;;3.83;;
10056;SDS011;5068;51.286;7.518;2023-04-06T00:47:04;8.13;;;3.70;;
10056;SDS011;5068;51.286;7.518;2023-04-06T00:48:37;6.75;;;3.47;;
10056;SDS011;5068;51.286;7.518;2023-04-06T00:50:12;7.88;;;3.72;;
10056;SDS011;5068;51.286;7.518;2023-04-06T00:51:45;6.35;;;3.50;;
10056;SDS011;5068;51.286;7.518;2023-04-06T00:53:20;6.78;;;3.92;;
10056;SDS011;5068;51.286;7.518;2023-04-06T00:54:53;6.07;;;3.72;;
10056;SDS011;5068;51.286;7.518;2023-04-06T00:56:27;7.45;;;3.65;;
10056;SDS011;5068;51.286;7.518;2023-04-06T00:57:59;6.60;;;3.97;;
10056;SDS011;5068;51.286;7.518;2023-04-06T00:59:37;5.95;;;3.60;;
10056;SDS011;5068;51.286;7.518;2023-04-06T01:01:15;6.85;;;3.70;;
10056;SDS011;5068;51.286;7.518;2023-04-06T01:02:58;5.63;;;3.55;;
10056;SDS011;5068;51.286;7.518;2023-04-06T01:04:38;5.28;;;3.35;;
10056;SDS011;5068;51.286;7.518;2023-04-06T01:06:17;6.05;;;3.38;;
10056;SDS011;5068;51.286;7.518;2023-04-06T01:07:59;7.35;;;3.88;;
10056;SDS011;5068;51.286;7.518;2023-04-06T01:09:34;7.93;;;3.40;;
10056;SDS011;5068;51.286;7.518;2023-04-06T01:11:13;5.55;;;3.25;;
10056;SDS011;5068;51.286;7.518;2023-04-06T01:12:46;5.72;;;3.50;;
10056;SDS011;5068;51.286;7.518;2023-04-06T01:14:26;6.43;;;3.40;;
10056;SDS011;5068;51.286;7.518;2023-04-06T01:16:03;6.63;;;3.25;;
10056;SDS011;5068;51.286;7.518;2023-04-06T01:17:53;5.80;;;3.42;;
10056;SDS011;5068;51.286;7.518;2023-04-06T01:19:27;5.93;;;3.35;;
10056;SDS011;5068;51.286;7.518;2023-04-06T01:21:00;6.80;;;3.58;;
10056;SDS011;5068;51.286;7.518;2023-04-06T01:22:35;7.13;;;3.70;;
10056;SDS011;5068;51.286;7.518;2023-04-06T01:24:09;6.85;;;3.50;;
10056;SDS011;5068;51.286;7.518;2023-04-06T01:26:03;6.55;;;4.05;;
10056;SDS011;5068;51.286;7.518;2023-04-06T01:27:36;6.63;;;3.33;;
10056;SDS011;5068;51.286;7.518;2023-04-06T01:29:15;8.05;;;3.60;;
10056;SDS011;5068;51.286;7.518;2023-04-06T01:30:49;7.03;;;3.88;;
10056;SDS011;5068;51.286;7.518;2023-04-06T01:32:40;5.38;;;3.45;;
10056;SDS011;5068;51.286;7.518;2023-04-06T01:34:19;8.52;;;4.38;;
10056;SDS011;5068;51.286;7.518;2023-04-06T01:35:52;5.55;;;3.40;;
10056;SDS011;5068;51.286;7.518;2023-04-06T01:37:25;8.07;;;3.63;;
10056;SDS011;5068;51.286;7.518;2023-04-06T01:39:02;8.25;;;4.03;;
10056;SDS011;5068;51.286;7.518;2023-04-06T01:40:39;6.53;;;3.72;;
10056;SDS011;5068;51.286;7.518;2023-04-06T01:42:12;6.25;;;3.90;;
10056;SDS011;5068;51.286;7.518;2023-04-06T01:43:47;6.68;;;3.63;;
10056;SDS011;5068;51.286;7.518;2023-04-06T01:45:20;7.32;;;3.65;;
10056;SDS011;5068;51.286;7.518;2023-04-06T01:46:55;6.22;;;3.20;;
10056;SDS011;5068;51.286;7.518;2023-04-06T01:48:29;6.68;;;3.80;;
10056;SDS011;5068;51.286;7.518;2023-04-06T01:50:01;5.75;;;3.40;;
10056;SDS011;5068;51.286;7.518;2023-04-06T01:51:41;7.32;;;3.85;;
10056;SDS011;5068;51.286;7.518;2023-04-06T01:53:16;7.60;;;4.15;;
10056;SDS011;5068;51.286;7.518;2023-04-06T01:54:51;6.90;;;3.72;;
10056;SDS011;5068;51.286;7.518;2023-04-06T01:56:37;6.75;;;3.78;;
10056;SDS011;5068;51.286;7.518;2023-04-06T01:58:37;6.25;;;3.60;;
10056;SDS011;5068;51.286;7.518;2023-04-06T02:00:11;6.10;;;3.50;;
10056;SDS011;5068;51.286;7.518;2023-04-06T02:01:50;6.55;;;3.67;;
10056;SDS011;5068;51.286;7.518;2023-04-06T02:03:24;6.32;;;3.75;;
10056;SDS011;5068;51.286;7.518;2023-04-06T02:06:41;7.35;;;3.75;;
10056;SDS011;5068;51.286;7.518;2023-04-06T02:08:16;5.70;;;3.40;;
10056;SDS011;5068;51.286;7.518;2023-04-06T02:09:53;6.13;;;3.63;;
10056;SDS011;5068;51.286;7.518;2023-04-06T02:11:32;9.18;;;3.55;;
10056;SDS011;5068;51.286;7.518;2023-04-06T02:13:06;7.72;;;3.78;;
10056;SDS011;5068;51.286;7.518;2023-04-06T02:14:40;6.05;;;3.63;;
10056;SDS011;5068;51.286;7.518;2023-04-06T02:16:13;8.07;;;4.00;;
10056;SDS011;5068;51.286;7.518;2023-04-06T02:17:49;5.45;;;3.53;;
10056;SDS011;5068;51.286;7.518;2023-04-06T02:19:22;6.18;;;3.22;;
10056;SDS011;5068;51.286;7.518;2023-04-06T02:20:55;6.43;;;3.70;;
10056;SDS011;5068;51.286;7.518;2023-04-06T02:22:28;6.10;;;3.35;;
10056;SDS011;5068;51.286;7.518;2023-04-06T02:24:01;6.53;;;3.78;;
10056;SDS011;5068;51.286;7.518;2023-04-06T02:25:36;6.00;;;3.83;;
10056;SDS011;5068;51.286;7.518;2023-04-06T02:27:10;6.40;;;3.50;;
10056;SDS011;5068;51.286;7.518;2023-04-06T02:28:42;5.80;;;3.55;;
10056;SDS011;5068;51.286;7.518;2023-04-06T02:30:15;6.85;;;3.40;;
10056;SDS011;5068;51.286;7.518;2023-04-06T02:31:48;7.07;;;3.95;;
10056;SDS011;5068;51.286;7.518;2023-04-06T02:33:21;6.80;;;4.05;;
10056;SDS011;5068;51.286;7.518;2023-04-06T02:34:55;7.05;;;3.47;;
10056;SDS011;5068;51.286;7.518;2023-04-06T02:36:29;6.38;;;3.88;;
10056;SDS011;5068;51.286;7.518;2023-04-06T02:38:03;6.43;;;3.45;;
10056;SDS011;5068;51.286;7.518;2023-04-06T02:39:36;6.22;;;3.65;;
10056;SDS011;5068;51.286;7.518;2023-04-06T02:41:13;6.45;;;3.70;;
10056;SDS011;5068;51.286;7.518;2023-04-06T02:42:46;5.90;;;3.38;;
10056;SDS011;5068;51.286;7.518;2023-04-06T02:44:23;5.95;;;3.00;;
10056;SDS011;5068;51.286;7.518;2023-04-06T02:45:56;6.25;;;3.30;;
10056;SDS011;5068;51.286;7.518;2023-04-06T02:47:30;8.88;;;3.60;;
10056;SDS011;5068;51.286;7.518;2023-04-06T02:49:03;5.40;;;3.17;;
10056;SDS011;5068;51.286;7.518;2023-04-06T02:50:38;5.70;;;3.50;;
10056;SDS011;5068;51.286;7.518;2023-04-06T02:52:12;6.95;;;3.55;;
10056;SDS011;5068;51.286;7.518;2023-04-06T02:53:45;5.97;;;3.25;;
10056;SDS011;5068;51.286;7.518;2023-04-06T02:55:19;5.45;;;3.38;;
10056;SDS011;5068;51.286;7.518;2023-04-06T02:56:54;5.32;;;3.53;;
10056;SDS011;5068;51.286;7.518;2023-04-06T02:58:36;5.38;;;3.38;;
10056;SDS011;5068;51.286;7.518;2023-04-06T03:00:09;6.00;;;3.10;;
10056;SDS011;5068;51.286;7.518;2023-04-06T03:01:45;5.70;;;3.17;;
10056;SDS011;5068;51.286;7.518;2023-04-06T03:03:19;5.15;;;3.38;;
10056;SDS011;5068;51.286;7.518;2023-04-06T03:04:53;7.22;;;3.70;;
10056;SDS011;5068;51.286;7.518;2023-04-06T03:06:32;4.78;;;2.80;;
10056;SDS011;5068;51.286;7.518;2023-04-06T03:08:14;6.95;;;3.50;;
10056;SDS011;5068;51.286;7.518;2023-04-06T03:09:49;6.72;;;3.50;;
10056;SDS011;5068;51.286;7.518;2023-04-06T03:11:22;7.13;;;3.42;;
10056;SDS011;5068;51.286;7.518;2023-04-06T03:12:58;5.82;;;3.22;;
10056;SDS011;5068;51.286;7.518;2023-04-06T03:14:46;8.35;;;3.30;;
10056;SDS011;5068;51.286;7.518;2023-04-06T03:16:20;4.80;;;3.08;;
10056;SDS011;5068;51.286;7.518;2023-04-06T03:17:54;6.32;;;3.38;;
10056;SDS011;5068;51.286;7.518;2023-04-06T03:19:38;5.95;;;3.13;;
10056;SDS011;5068;51.286;7.518;2023-04-06T03:21:13;5.43;;;3.25;;
10056;SDS011;5068;51.286;7.518;2023-04-06T03:22:51;4.68;;;2.83;;
10056;SDS011;5068;51.286;7.518;2023-04-06T03:24:29;5.03;;;2.83;;
10056;SDS011;5068;51.286;7.518;2023-04-06T03:26:02;4.65;;;2.88;;
10056;SDS011;5068;51.286;7.518;2023-04-06T03:27:36;4.88;;;3.35;;
10056;SDS011;5068;51.286;7.518;2023-04-06T03:29:12;5.05;;;3.00;;
10056;SDS011;5068;51.286;7.518;2023-04-06T03:30:45;5.75;;;3.30;;
10056;SDS011;5068;51.286;7.518;2023-04-06T03:32:22;5.97;;;3.28;;
10056;SDS011;5068;51.286;7.518;2023-04-06T03:33:54;5.38;;;3.35;;
10056;SDS011;5068;51.286;7.518;2023-04-06T03:35:39;6.00;;;3.42;;
10056;SDS011;5068;51.286;7.518;2023-04-06T03:37:13;4.70;;;2.60;;
10056;SDS011;5068;51.286;7.518;2023-04-06T03:38:51;5.85;;;3.03;;
10056;SDS011;5068;51.286;7.518;2023-04-06T03:40:25;4.97;;;2.97;;
10056;SDS011;5068;51.286;7.518;2023-04-06T03:41:58;5.80;;;2.83;;
10056;SDS011;5068;51.286;7.518;2023-04-06T03:43:47;5.50;;;3.00;;
10056;SDS011;5068;51.286;7.518;2023-04-06T03:45:23;5.32;;;2.78;;
10056;SDS011;5068;51.286;7.518;2023-04-06T03:46:56;6.25;;;3.28;;
10056;SDS011;5068;51.286;7.518;2023-04-06T03:48:29;5.85;;;3.03;;
10056;SDS011;5068;51.286;7.518;2023-04-06T03:50:06;5.97;;;3.53;;
10056;SDS011;5068;51.286;7.518;2023-04-06T03:51:41;5.32;;;3.15;;
10056;SDS011;5068;51.286;7.518;2023-04-06T03:53:13;4.47;;;2.70;;
10056;SDS011;5068;51.286;7.518;2023-04-06T03:54:46;5.75;;;3.15;;
10056;SDS011;5068;51.286;7.518;2023-04-06T03:56:19;5.75;;;2.90;;
10056;SDS011;5068;51.286;7.518;2023-04-06T03:57:52;5.60;;;3.33;;
10056;SDS011;5068;51.286;7.518;2023-04-06T03:59:25;6.10;;;3.10;;
10056;SDS011;5068;51.286;7.518;2023-04-06T04:01:00;5.18;;;2.92;;
10056;SDS011;5068;51.286;7.518;2023-04-06T04:02:32;5.22;;;2.85;;
10056;SDS011;5068;51.286;7.518;2023-04-06T04:04:06;4.82;;;2.75;;
10056;SDS011;5068;51.286;7.518;2023-04-06T04:05:39;5.53;;;3.08;;
10056;SDS011;5068;51.286;7.518;2023-04-06T04:07:13;6.03;;;3.15;;
10056;SDS011;5068;51.286;7.518;2023-04-06T04:08:45;5.15;;;2.90;;
10056;SDS011;5068;51.286;7.518;2023-04-06T04:10:18;5.95;;;2.70;;
10056;SDS011;5068;51.286;7.518;2023-04-06T04:11:51;5.78;;;2.80;;
10056;SDS011;5068;51.286;7.518;2023-04-06T04:13:25;4.80;;;2.97;;
10056;SDS011;5068;51.286;7.518;2023-04-06T04:14:58;5.63;;;2.97;;
10056;SDS011;5068;51.286;7.518;2023-04-06T04:16:33;5.13;;;2.90;;
10056;SDS011;5068;51.286;7.518;2023-04-06T04:18:06;5.53;;;3.05;;
10056;SDS011;5068;51.286;7.518;2023-04-06T04:19:40;6.63;;;3.20;;
10056;SDS011;5068;51.286;7.518;2023-04-06T04:21:13;5.88;;;3.17;;
10056;SDS011;5068;51.286;7.518;2023-04-06T04:22:47;6.20;;;2.70;;
10056;SDS011;5068;51.286;7.518;2023-04-06T04:24:20;4.97;;;2.75;;
10056;SDS011;5068;51.286;7.518;2023-04-06T04:25:54;5.30;;;2.92;;
10056;SDS011;5068;51.286;7.518;2023-04-06T04:27:27;4.43;;;2.60;;
10056;SDS011;5068;51.286;7.518;2023-04-06T04:29:00;7.30;;;3.00;;
10056;SDS011;5068;51.286;7.518;2023-04-06T04:30:33;5.30;;;3.03;;
10056;SDS011;5068;51.286;7.518;2023-04-06T04:32:12;5.97;;;3.10;;
10056;SDS011;5068;51.286;7.518;2023-04-06T04:33:46;6.25;;;2.72;;
10056;SDS011;5068;51.286;7.518;2023-04-06T04:35:26;5.60;;;3.15;;
10056;SDS011;5068;51.286;7.518;2023-04-06T04:36:59;4.78;;;2.97;;
10056;SDS011;5068;51.286;7.518;2023-04-06T04:38:53;4.75;;;3.03;;
10056;SDS011;5068;51.286;7.518;2023-04-06T04:40:27;4.88;;;2.72;;
10056;SDS011;5068;51.286;7.518;2023-04-06T04:42:08;5.07;;;3.15;;
10056;SDS011;5068;51.286;7.518;2023-04-06T04:43:47;4.70;;;2.78;;
10056;SDS011;5068;51.286;7.518;2023-04-06T04:45:25;4.60;;;2.78;;
10056;SDS011;5068;51.286;7.518;2023-04-06T04:46:59;5.40;;;2.85;;
10056;SDS011;5068;51.286;7.518;2023-04-06T04:48:44;6.63;;;3.10;;
10056;SDS011;5068;51.286;7.518;2023-04-06T04:50:18;4.75;;;2.70;;
10056;SDS011;5068;51.286;7.518;2023-04-06T04:51:54;6.60;;;2.97;;
10056;SDS011;5068;51.286;7.518;2023-04-06T04:53:35;5.97;;;3.30;;
10056;SDS011;5068;51.286;7.518;2023-04-06T04:55:19;5.00;;;3.00;;
10056;SDS011;5068;51.286;7.518;2023-04-06T04:56:57;4.68;;;2.47;;
10056;SDS011;5068;51.286;7.518;2023-04-06T04:58:41;5.10;;;2.70;;
10056;SDS011;5068;51.286;7.518;2023-04-06T05:00:16;5.30;;;2.92;;
10056;SDS011;5068;51.286;7.518;2023-04-06T05:01:50;3.80;;;2.72;;
10056;SDS011;5068;51.286;7.518;2023-04-06T05:03:33;5.15;;;2.83;;
10056;SDS011;5068;51.286;7.518;2023-04-06T05:05:16;5.20;;;3.10;;
10056;SDS011;5068;51.286;7.518;2023-04-06T05:06:50;5.47;;;3.10;;
10056;SDS011;5068;51.286;7.518;2023-04-06T05:08:23;6.00;;;3.00;;
10056;SDS011;5068;51.286;7.518;2023-04-06T05:09:57;5.30;;;3.20;;
10056;SDS011;5068;51.286;7.518;2023-04-06T05:11:32;5.78;;;3.38;;
10056;SDS011;5068;51.286;7.518;2023-04-06T05:13:07;4.38;;;3.15;;
10056;SDS011;5068;51.286;7.518;2023-04-06T05:14:40;5.35;;;3.35;;
10056;SDS011;5068;51.286;7.518;2023-04-06T05:16:18;5.45;;;3.30;;
10056;SDS011;5068;51.286;7.518;2023-04-06T05:17:51;5.15;;;3.38;;
10056;SDS011;5068;51.286;7.518;2023-04-06T05:19:29;4.88;;;3.08;;
10056;SDS011;5068;51.286;7.518;2023-04-06T05:21:04;4.50;;;3.25;;
10056;SDS011;5068;51.286;7.518;2023-04-06T05:23:00;5.97;;;2.72;;
10056;SDS011;5068;51.286;7.518;2023-04-06T05:24:34;6.05;;;2.90;;
10056;SDS011;5068;51.286;7.518;2023-04-06T05:26:10;4.63;;;3.03;;
10056;SDS011;5068;51.286;7.518;2023-04-06T05:27:44;6.93;;;3.10;;
10056;SDS011;5068;51.286;7.518;2023-04-06T05:29:30;5.28;;;3.45;;
10056;SDS011;5068;51.286;7.518;2023-04-06T05:31:03;4.72;;;3.22;;
10056;SDS011;5068;51.286;7.518;2023-04-06T05:32:46;5.95;;;3.05;;
10056;SDS011;5068;51.286;7.518;2023-04-06T05:34:20;5.75;;;2.90;;
10056;SDS011;5068;51.286;7.518;2023-04-06T05:35:55;4.25;;;3.00;;
10056;SDS011;5068;51.286;7.518;2023-04-06T05:37:29;4.35;;;2.85;;
10056;SDS011;5068;51.286;7.518;2023-04-06T05:39:03;5.03;;;2.97;;
10056;SDS011;5068;51.286;7.518;2023-04-06T05:40:42;5.18;;;3.13;;
10056;SDS011;5068;51.286;7.518;2023-04-06T05:42:19;5.75;;;3.20;;
10056;SDS011;5068;51.286;7.518;2023-04-06T05:43:56;5.35;;;2.97;;
10056;SDS011;5068;51.286;7.518;2023-04-06T05:45:29;4.75;;;2.72;;
10056;SDS011;5068;51.286;7.518;2023-04-06T05:47:03;4.75;;;3.00;;
10056;SDS011;5068;51.286;7.518;2023-04-06T05:48:36;5.38;;;3.05;;
10056;SDS011;5068;51.286;7.518;2023-04-06T05:50:10;5.03;;;3.13;;
10056;SDS011;5068;51.286;7.518;2023-04-06T05:51:44;4.65;;;3.30;;
10056;SDS011;5068;51.286;7.518;2023-04-06T05:53:19;4.50;;;3.00;;
10056;SDS011;5068;51.286;7.518;2023-04-06T05:54:58;5.95;;;3.22;;
10056;SDS011;5068;51.286;7.518;2023-04-06T05:56:32;5.55;;;3.20;;
10056;SDS011;5068;51.286;7.518;2023-04-06T05:58:06;6.15;;;3.10;;
10056;SDS011;5068;51.286;7.518;2023-04-06T05:59:40;5.78;;;3.00;;
10056;SDS011;5068;51.286;7.518;2023-04-06T06:01:13;5.15;;;3.15;;
10056;SDS011;5068;51.286;7.518;2023-04-06T06:02:50;5.32;;;3.00;;
10056;SDS011;5068;51.286;7.518;2023-04-06T06:04:27;6.57;;;3.00;;
10056;SDS011;5068;51.286;7.518;2023-04-06T06:06:01;4.38;;;2.80;;
10056;SDS011;5068;51.286;7.518;2023-04-06T06:07:49;5.30;;;2.92;;
10056;SDS011;5068;51.286;7.518;2023-04-06T06:09:23;6.55;;;2.92;;
10056;SDS011;5068;51.286;7.518;2023-04-06T06:11:12;6.20;;;3.10;;
10056;SDS011;5068;51.286;7.518;2023-04-06T06:12:46;4.78;;;2.90;;
10056;SDS011;5068;51.286;7.518;2023-04-06T06:14:20;7.50;;;3.33;;
10056;SDS011;5068;51.286;7.518;2023-04-06T06:15:54;5.13;;;2.90;;
10056;SDS011;5068;51.286;7.518;2023-04-06T06:17:27;6.15;;;3.05;;
10056;SDS011;5068;51.286;7.518;2023-04-06T06:19:01;6.25;;;3.05;;
10056;SDS011;5068;51.286;7.518;2023-04-06T06:20:35;7.38;;;3.15;;
10056;SDS011;5068;51.286;7.518;2023-04-06T06:22:09;3.95;;;2.63;;
10056;SDS011;5068;51.286;7.518;2023-04-06T06:23:46;5.25;;;2.90;;
10056;SDS011;5068;51.286;7.518;2023-04-06T06:25:25;5.53;;;3.10;;
10056;SDS011;5068;51.286;7.518;2023-04-06T06:26:58;5.82;;;3.55;;
10056;SDS011;5068;51.286;7.518;2023-04-06T06:28:34;5.97;;;3.33;;
10056;SDS011;5068;51.286;7.518;2023-04-06T06:30:08;5.32;;;3.20;;
10056;SDS011;5068;51.286;7.518;2023-04-06T06:31:44;4.57;;;2.90;;
10056;SDS011;5068;51.286;7.518;2023-04-06T06:33:18;6.05;;;3.05;;
10056;SDS011;5068;51.286;7.518;2023-04-06T06:34:53;5.00;;;3.15;;
10056;SDS011;5068;51.286;7.518;2023-04-06T06:36:27;6.15;;;3.22;;
10056;SDS011;5068;51.286;7.518;2023-04-06T06:38:02;4.05;;;2.80;;
10056;SDS011;5068;51.286;7.518;2023-04-06T06:39:38;4.45;;;2.78;;
10056;SDS011;5068;51.286;7.518;2023-04-06T06:41:12;5.45;;;2.83;;
10056;SDS011;5068;51.286;7.518;2023-04-06T06:42:46;4.88;;;2.85;;
10056;SDS011;5068;51.286;7.518;2023-04-06T06:44:26;4.13;;;2.92;;
10056;SDS011;5068;51.286;7.518;2023-04-06T06:45:59;6.18;;;3.63;;
10056;SDS011;5068;51.286;7.518;2023-04-06T06:47:33;5.13;;;2.97;;
10056;SDS011;5068;51.286;7.518;2023-04-06T06:49:06;5.15;;;3.33;;
10056;SDS011;5068;51.286;7.518;2023-04-06T06:50:39;6.90;;;3.67;;
10056;SDS011;5068;51.286;7.518;2023-04-06T06:52:13;6.78;;;3.70;;
10056;SDS011;5068;51.286;7.518;2023-04-06T06:53:47;4.65;;;3.10;;
10056;SDS011;5068;51.286;7.518;2023-04-06T06:55:21;5.40;;;3.33;;
10056;SDS011;5068;51.286;7.518;2023-04-06T06:56:55;5.20;;;3.13;;
10056;SDS011;5068;51.286;7.518;2023-04-06T06:58:29;4.95;;;3.22;;
10056;SDS011;5068;51.286;7.518;2023-04-06T07:00:03;5.68;;;3.75;;
10056;SDS011;5068;51.286;7.518;2023-04-06T07:01:40;4.15;;;2.85;;
10056;SDS011;5068;51.286;7.518;2023-04-06T07:03:14;4.35;;;3.05;;
10056;SDS011;5068;51.286;7.518;2023-04-06T07:04:47;4.57;;;2.95;;
10056;SDS011;5068;51.286;7.518;2023-04-06T07:06:21;6.00;;;3.00;;
10056;SDS011;5068;51.286;7.518;2023-04-06T07:07:54;4.82;;;3.30;;
10056;SDS011;5068;51.286;7.518;2023-04-06T07:09:29;5.22;;;3.08;;
10056;SDS011;5068;51.286;7.518;2023-04-06T07:11:03;5.53;;;3.05;;
10056;SDS011;5068;51.286;7.518;2023-04-06T07:12:38;4.88;;;3.20;;
10056;SDS011;5068;51.286;7.518;2023-04-06T07:14:11;4.88;;;3.17;;
10056;SDS011;5068;51.286;7.518;2023-04-06T07:15:45;5.35;;;3.00;;
10056;SDS011;5068;51.286;7.518;2023-04-06T07:17:19;6.68;;;3.33;;
10056;SDS011;5068;51.286;7.518;2023-04-06T07:18:52;4.65;;;3.20;;
10056;SDS011;5068;51.286;7.518;2023-04-06T07:20:26;5.45;;;3.25;;
10056;SDS011;5068;51.286;7.518;2023-04-06T07:22:00;4.13;;;2.90;;
10056;SDS011;5068;51.286;7.518;2023-04-06T07:23:34;5.25;;;3.13;;
10056;SDS011;5068;51.286;7.518;2023-04-06T07:25:08;5.22;;;3.20;;
10056;SDS011;5068;51.286;7.518;2023-04-06T07:26:42;5.68;;;3.20;;
10056;SDS011;5068;51.286;7.518;2023-04-06T07:28:16;5.28;;;3.75;;
10056;SDS011;5068;51.286;7.518;2023-04-06T07:29:50;5.75;;;4.32;;
10056;SDS011;5068;51.286;7.518;2023-04-06T07:31:24;4.43;;;3.17;;
10056;SDS011;5068;51.286;7.518;2023-04-06T07:32:58;5.82;;;3.58;;
10056;SDS011;5068;51.286;7.518;2023-04-06T07:34:32;5.35;;;3.17;;
10056;SDS011;5068;51.286;7.518;2023-04-06T07:36:05;6.05;;;3.33;;
10056;SDS011;5068;51.286;7.518;2023-04-06T07:37:39;5.30;;;3.25;;
10056;SDS011;5068;51.286;7.518;2023-04-06T07:39:12;6.57;;;3.65;;
10056;SDS011;5068;51.286;7.518;2023-04-06T07:40:46;4.53;;;2.97;;
10056;SDS011;5068;51.286;7.518;2023-04-06T07:42:19;4.80;;;3.05;;
10056;SDS011;5068;51.286;7.518;2023-04-06T07:44:01;5.68;;;3.40;;
10056;SDS011;5068;51.286;7.518;2023-04-06T07:45:35;6.25;;;3.40;;
10056;SDS011;5068;51.286;7.518;2023-04-06T07:48:43;4.80;;;3.25;;
10056;SDS011;5068;51.286;7.518;2023-04-06T07:50:17;4.20;;;3.08;;
10056;SDS011;5068;51.286;7.518;2023-04-06T07:51:51;5.00;;;2.95;;
10056;SDS011;5068;51.286;7.518;2023-04-06T07:53:24;5.82;;;3.35;;
10056;SDS011;5068;51.286;7.518;2023-04-06T07:54:58;4.88;;;3.50;;
10056;SDS011;5068;51.286;7.518;2023-04-06T07:56:31;7.40;;;3.45;;
10056;SDS011;5068;51.286;7.518;2023-04-06T07:58:04;5.50;;;3.08;;
10056;SDS011;5068;51.286;7.518;2023-04-06T07:59:39;4.57;;;2.97;;
10056;SDS011;5068;51.286;7.518;2023-04-06T08:01:12;5.65;;;3.60;;
10056;SDS011;5068;51.286;7.518;2023-04-06T08:02:45;4.90;;;3.22;;
10056;SDS011;5068;51.286;7.518;2023-04-06T08:04:19;4.35;;;3.13;;
10056;SDS011;5068;51.286;7.518;2023-04-06T08:05:53;4.32;;;3.00;;
10056;SDS011;5068;51.286;7.518;2023-04-06T08:07:26;4.68;;;3.20;;
10056;SDS011;5068;51.286;7.518;2023-04-06T08:08:59;4.53;;;3.28;;
10056;SDS011;5068;51.286;7.518;2023-04-06T08:10:33;5.00;;;3.25;;
10056;SDS011;5068;51.286;7.518;2023-04-06T08:12:06;4.82;;;2.83;;
10056;SDS011;5068;51.286;7.518;2023-04-06T08:13:40;5.93;;;3.22;;
10056;SDS011;5068;51.286;7.518;2023-04-06T08:15:14;6.22;;;3.88;;
10056;SDS011;5068;51.286;7.518;2023-04-06T08:16:49;5.57;;;3.22;;
10056;SDS011;5068;51.286;7.518;2023-04-06T08:18:22;6.50;;;3.10;;
10056;SDS011;5068;51.286;7.518;2023-04-06T08:19:56;5.82;;;3.40;;
10056;SDS011;5068;51.286;7.518;2023-04-06T08:21:29;6.28;;;3.20;;
10056;SDS011;5068;51.286;7.518;2023-04-06T08:23:02;6.03;;;3.55;;
10056;SDS011;5068;51.286;7.518;2023-04-06T08:24:35;8.57;;;3.67;;
10056;SDS011;5068;51.286;7.518;2023-04-06T08:26:09;7.75;;;3.95;;
10056;SDS011;5068;51.286;7.518;2023-04-06T08:27:42;4.22;;;2.75;;
10056;SDS011;5068;51.286;7.518;2023-04-06T08:29:15;6.40;;;3.35;;
10056;SDS011;5068;51.286;7.518;2023-04-06T08:30:50;4.88;;;3.60;;
10056;SDS011;5068;51.286;7.518;2023-04-06T08:32:25;8.38;;;3.83;;
10056;SDS011;5068;51.286;7.518;2023-04-06T08:33:58;6.57;;;3.70;;
10056;SDS011;5068;51.286;7.518;2023-04-06T08:35:32;7.45;;;3.78;;
10056;SDS011;5068;51.286;7.518;2023-04-06T08:37:06;5.25;;;3.83;;
10056;SDS011;5068;51.286;7.518;2023-04-06T08:38:39;5.97;;;3.70;;
10056;SDS011;5068;51.286;7.518;2023-04-06T08:40:14;10.07;;;4.28;;
10056;SDS011;5068;51.286;7.518;2023-04-06T08:41:47;5.97;;;3.67;;
10056;SDS011;5068;51.286;7.518;2023-04-06T08:43:23;5.55;;;3.80;;
10056;SDS011;5068;51.286;7.518;2023-04-06T08:45:00;5.97;;;3.80;;
10056;SDS011;5068;51.286;7.518;2023-04-06T08:46:35;5.05;;;3.78;;
10056;SDS011;5068;51.286;7.518;2023-04-06T08:48:08;6.13;;;3.80;;
10056;SDS011;5068;51.286;7.518;2023-04-06T08:49:44;5.30;;;3.45;;
10056;SDS011;5068;51.286;7.518;2023-04-06T08:51:18;6.50;;;4.20;;
10056;SDS011;5068;51.286;7.518;2023-04-06T08:52:52;6.72;;;3.78;;
10056;SDS011;5068;51.286;7.518;2023-04-06T08:54:27;6.40;;;4.18;;
10056;SDS011;5068;51.286;7.518;2023-04-06T08:56:00;6.38;;;4.15;;
10056;SDS011;5068;51.286;7.518;2023-04-06T08:57:35;5.60;;;4.22;;
10056;SDS011;5068;51.286;7.518;2023-04-06T08:59:09;6.32;;;4.20;;
10056;SDS011;5068;51.286;7.518;2023-04-06T09:00:43;5.90;;;4.03;;
10056;SDS011;5068;51.286;7.518;2023-04-06T09:02:18;6.80;;;4.35;;
10056;SDS011;5068;51.286;7.518;2023-04-06T09:03:54;6.72;;;4.00;;
10056;SDS011;5068;51.286;7.518;2023-04-06T09:05:30;7.13;;;4.28;;
10056;SDS011;5068;51.286;7.518;2023-04-06T09:07:04;6.35;;;4.10;;
10056;SDS011;5068;51.286;7.518;2023-04-06T09:08:38;6.10;;;4.35;;
10056;SDS011;5068;51.286;7.518;2023-04-06T09:10:12;6.85;;;4.60;;
10056;SDS011;5068;51.286;7.518;2023-04-06T09:11:47;7.63;;;4.97;;
10056;SDS011;5068;51.286;7.518;2023-04-06T09:13:23;7.55;;;4.47;;
10056;SDS011;5068;51.286;7.518;2023-04-06T09:14:56;7.13;;;4.40;;
10056;SDS011;5068;51.286;7.518;2023-04-06T09:16:38;6.90;;;4.55;;
10056;SDS011;5068;51.286;7.518;2023-04-06T09:18:14;7.30;;;5.18;;
10056;SDS011;5068;51.286;7.518;2023-04-06T09:20:01;7.13;;;5.50;;
10056;SDS011;5068;51.286;7.518;2023-04-06T09:23:17;7.10;;;5.07;;
10056;SDS011;5068;51.286;7.518;2023-04-06T09:24:51;8.63;;;5.40;;
10056;SDS011;5068;51.286;7.518;2023-04-06T09:26:25;8.65;;;5.50;;
10056;SDS011;5068;51.286;7.518;2023-04-06T09:27:59;9.45;;;5.38;;
10056;SDS011;5068;51.286;7.518;2023-04-06T09:29:35;10.27;;;6.00;;
10056;SDS011;5068;51.286;7.518;2023-04-06T09:31:08;8.55;;;5.68;;
10056;SDS011;5068;51.286;7.518;2023-04-06T09:32:46;11.13;;;6.25;;
10056;SDS011;5068;51.286;7.518;2023-04-06T09:34:23;9.85;;;6.22;;
10056;SDS011;5068;51.286;7.518;2023-04-06T09:35:56;9.25;;;5.70;;
10056;SDS011;5068;51.286;7.518;2023-04-06T09:37:30;10.52;;;6.70;;
10056;SDS011;5068;51.286;7.518;2023-04-06T09:39:04;10.30;;;6.30;;
10056;SDS011;5068;51.286;7.518;2023-04-06T09:40:46;9.63;;;6.40;;
10056;SDS011;5068;51.286;7.518;2023-04-06T09:42:32;8.60;;;6.38;;
10056;SDS011;5068;51.286;7.518;2023-04-06T09:44:07;10.75;;;6.85;;
10056;SDS011;5068;51.286;7.518;2023-04-06T09:45:41;12.30;;;7.47;;
10056;SDS011;5068;51.286;7.518;2023-04-06T09:47:15;11.40;;;7.05;;